Time;durP1;ratioP1;P1;durP2;ratioP2;P2;SDS_P1;SDS_P2;PMS_P1;PMS_P2;Temp;Humidity;BMP_temperature;BMP_pressure;BME280_temperature;BME280_humidity;BME280_pressure;Samples;Min_cycle;Max_cycle;Signal;HPM_P1;HPM_P2
2022/04/24 00:01:35;;;;;;;12.03;10.80;;;11.20;99.90;;;;;;5012117;28;20172;-57
2022/04/24 00:04:01;;;;;;;12.67;11.37;;;11.10;99.90;;;;;;5011606;28;20199;-59
2022/04/24 00:06:26;;;;;;;12.43;11.13;;;11.00;99.90;;;;;;5011930;28;20177;-60
2022/04/24 00:08:52;;;;;;;13.57;11.87;;;11.10;99.90;;;;;;5012011;28;20679;-58
2022/04/24 00:11:17;;;;;;;14.37;11.40;;;11.10;99.90;;;;;;5011995;28;20681;-60
2022/04/24 00:13:43;;;;;;;12.67;11.37;;;11.10;99.90;;;;;;5011501;28;20231;-61
2022/04/24 00:16:09;;;;;;;12.73;10.93;;;11.10;99.90;;;;;;5011845;28;20573;-62
2022/04/24 00:18:37;;;;;;;13.53;12.13;;;11.20;99.90;;;;;;5011880;28;20180;-60
2022/04/24 00:21:06;;;;;;;14.60;12.53;;;11.30;99.90;;;;;;5011774;28;20172;-61
2022/04/24 00:23:32;;;;;;;12.30;11.00;;;11.40;99.90;;;;;;5011375;28;20200;-61
2022/04/24 00:25:59;;;;;;;12.23;10.93;;;11.40;99.90;;;;;;5011819;28;20235;-60
2022/04/24 00:28:25;;;;;;;12.23;11.00;;;11.30;99.90;;;;;;5011674;28;20204;-59
2022/04/24 00:30:50;;;;;;;11.77;10.57;;;11.30;99.90;;;;;;5011796;28;20183;-60
2022/04/24 00:33:16;;;;;;;12.13;10.83;;;11.30;99.90;;;;;;5011346;28;20558;-62
2022/04/24 00:35:41;;;;;;;13.53;11.00;;;11.30;99.90;;;;;;5011703;28;20195;-59
2022/04/24 00:38:07;;;;;;;11.63;10.43;;;11.30;99.90;;;;;;5011656;28;20549;-60
2022/04/24 00:40:33;;;;;;;12.07;10.87;;;;;;;;;;5011692;28;20184;-61
2022/04/24 00:42:58;;;;;;;13.20;10.93;;;11.30;99.90;;;;;;5011341;28;20291;-62
2022/04/24 00:45:24;;;;;;;13.43;11.00;;;11.30;99.90;;;;;;5011878;28;20259;-61
2022/04/24 00:47:50;;;;;;;13.13;11.73;;;11.30;99.90;;;;;;5011711;28;20181;-58
2022/04/24 00:50:17;;;;;;;13.50;11.97;;;11.20;99.90;;;;;;5014627;28;20180;-59
2022/04/24 00:52:43;;;;;;;13.07;11.67;;;11.30;99.90;;;;;;5014616;28;20263;-58
2022/04/24 00:55:08;;;;;;;13.03;11.63;;;11.30;99.90;;;;;;5015106;28;20542;-54
2022/04/24 00:57:35;;;;;;;13.23;11.83;;;11.30;99.90;;;;;;5015033;28;20550;-59
2022/04/24 01:00:00;;;;;;;13.63;11.70;;;11.20;99.90;;;;;;5015030;28;20211;-60
2022/04/24 01:02:26;;;;;;;12.03;10.83;;;11.20;99.90;;;;;;5014535;28;20258;-55
2022/04/24 01:04:52;;;;;;;12.30;11.00;;;11.20;99.90;;;;;;4997271;28;20168;-58
2022/04/24 01:07:17;;;;;;;13.17;11.00;;;11.10;99.90;;;;;;5014779;28;20199;-56
2022/04/24 01:09:43;;;;;;;12.20;11.00;;;11.10;99.90;;;;;;5014752;28;20286;-55
2022/04/24 01:12:09;;;;;;;11.87;10.67;;;11.20;99.90;;;;;;5014627;28;20329;-61
2022/04/24 01:14:35;;;;;;;11.70;10.50;;;11.10;99.90;;;;;;5014446;28;20216;-60
2022/04/24 01:17:03;;;;;;;10.90;9.80;;;10.90;99.90;;;;;;5014599;28;20173;-60
2022/04/24 01:19:29;;;;;;;10.80;9.70;;;10.90;99.90;;;;;;5015762;28;20191;-61
2022/04/24 01:21:55;;;;;;;11.50;10.30;;;10.90;99.90;;;;;;5014556;28;20181;-59
2022/04/24 01:24:27;;;;;;;10.10;9.10;;;10.90;99.90;;;;;;5014259;28;20334;-60
2022/04/24 01:26:53;;;;;;;10.83;9.73;;;11.00;99.90;;;;;;5014580;28;20208;-60
2022/04/24 01:29:19;;;;;;;9.67;8.70;;;11.10;99.90;;;;;;5014362;28;20239;-57
2022/04/24 01:31:48;;;;;;;10.87;9.77;;;11.10;99.90;;;;;;5014355;28;20173;-58
2022/04/24 01:34:14;;;;;;;9.77;8.63;;;11.20;99.90;;;;;;5013915;28;20189;-60
2022/04/24 01:36:40;;;;;;;10.43;9.27;;;11.30;99.90;;;;;;5014251;28;20589;-57
2022/04/24 01:39:06;;;;;;;9.67;8.67;;;11.30;99.90;;;;;;5014214;28;20178;-59
2022/04/24 01:41:32;;;;;;;10.00;9.00;;;11.40;99.90;;;;;;5014265;28;20238;-59
2022/04/24 01:43:58;;;;;;;10.13;9.13;;;11.50;99.90;;;;;;5013789;28;20208;-60
2022/04/24 01:46:24;;;;;;;10.20;9.10;;;13.90;99.90;;;;;;5013977;28;20676;-60
2022/04/24 01:48:50;;;;;;;10.13;8.80;;;11.60;99.90;;;;;;5013999;28;20287;-60
2022/04/24 01:51:16;;;;;;;10.27;9.00;;;11.50;99.90;;;;;;5014241;28;20177;-61
2022/04/24 01:53:43;;;;;;;10.00;9.00;;;11.50;99.90;;;;;;5013603;28;20669;-60
2022/04/24 01:56:09;;;;;;;9.43;8.10;;;11.50;99.90;;;;;;5014020;28;20634;-58
2022/04/24 01:58:35;;;;;;;9.50;8.50;;;11.50;99.90;;;;;;5013971;28;20169;-56
2022/04/24 02:01:01;;;;;;;9.83;8.83;;;11.50;99.90;;;;;;5013220;28;20176;-57
2022/04/24 02:03:28;;;;;;;9.40;8.40;;;11.60;99.90;;;;;;5013334;28;20197;-56
2022/04/24 02:05:54;;;;;;;9.60;8.60;;;11.50;99.90;;;;;;5013761;28;20230;-57
2022/04/24 02:08:20;;;;;;;10.10;7.77;;;11.50;99.90;;;;;;5013716;28;20208;-59
2022/04/24 02:10:46;;;;;;;8.83;7.80;;;11.50;99.90;;;;;;5013719;28;20231;-58
2022/04/24 02:13:11;;;;;;;8.73;7.83;;;11.30;99.90;;;;;;5013138;28;20199;-56
2022/04/24 02:15:37;;;;;;;9.30;7.93;;;11.30;99.90;;;;;;5013465;28;20234;-59
2022/04/24 02:18:02;;;;;;;8.37;7.53;;;11.20;99.90;;;;;;5013486;28;20177;-58
2022/04/24 02:20:31;;;;;;;9.33;8.33;;;11.30;99.90;;;;;;5013477;28;20654;-59
2022/04/24 02:22:58;;;;;;;8.90;7.80;;;11.30;99.90;;;;;;5013078;28;20612;-61
2022/04/24 02:25:28;;;;;;;9.00;8.10;;;11.40;99.90;;;;;;5013395;28;20172;-59
2022/04/24 02:27:55;;;;;;;7.47;6.77;;;11.40;99.90;;;;;;5013279;28;20169;-59
2022/04/24 02:30:28;;;;;;;7.83;7.03;;;11.40;99.90;;;;;;5013269;28;20164;-58
2022/04/24 02:32:58;;;;;;;8.13;7.33;;;11.60;99.90;;;;;;5013081;28;20212;-57
2022/04/24 02:35:25;;;;;;;9.43;7.30;;;11.60;99.90;;;;;;5013221;28;20271;-58
2022/04/24 02:37:50;;;;;;;8.07;7.20;;;11.60;99.90;;;;;;5013345;28;20172;-61
2022/04/24 02:40:21;;;;;;;8.63;7.20;;;11.60;99.90;;;;;;5013092;28;20180;-58
2022/04/24 02:42:48;;;;;;;7.70;6.90;;;11.60;99.90;;;;;;5012689;28;20204;-61
2022/04/24 02:45:14;;;;;;;8.23;7.00;;;11.60;99.90;;;;;;5013000;28;20205;-58
2022/04/24 02:47:40;;;;;;;7.87;7.07;;;11.60;99.90;;;;;;5013018;28;20259;-59
2022/04/24 02:50:06;;;;;;;7.90;6.60;;;11.60;99.90;;;;;;5012844;28;20196;-58
2022/04/24 02:52:32;;;;;;;7.57;6.83;;;11.60;99.90;;;;;;5012473;28;20185;-58
2022/04/24 02:54:57;;;;;;;7.40;6.70;;;11.50;99.90;;;;;;5012796;28;20278;-59
2022/04/24 02:57:23;;;;;;;8.70;7.00;;;11.50;99.90;;;;;;5012903;28;20176;-58
2022/04/24 02:59:49;;;;;;;7.50;6.60;;;11.50;99.90;;;;;;5012793;28;20223;-58
2022/04/24 03:02:17;;;;;;;7.23;6.53;;;11.40;99.90;;;;;;5012533;28;20211;-60
2022/04/24 03:04:45;;;;;;;7.63;6.40;;;11.40;99.90;;;;;;5012532;28;20196;-58
2022/04/24 03:07:11;;;;;;;6.80;5.97;;;11.40;99.90;;;;;;5012644;28;20207;-57
2022/04/24 03:09:37;;;;;;;7.70;6.90;;;11.40;99.90;;;;;;5012475;28;20259;-58
2022/04/24 03:12:03;;;;;;;7.00;6.30;;;11.40;99.90;;;;;;5011844;28;20638;-60
2022/04/24 03:14:28;;;;;;;6.90;6.03;;;11.40;99.90;;;;;;5012003;28;20203;-60
2022/04/24 03:16:54;;;;;;;6.90;6.13;;;11.60;99.90;;;;;;5012787;28;20176;-59
2022/04/24 03:19:20;;;;;;;6.80;6.10;;;11.70;99.90;;;;;;5012503;28;20264;-60
2022/04/24 03:21:46;;;;;;;8.07;6.40;;;11.80;99.90;;;;;;5012429;28;20527;-59
2022/04/24 03:24:12;;;;;;;6.47;5.87;;;11.90;99.90;;;;;;5011954;28;20291;-57
2022/04/24 03:26:37;;;;;;;6.90;6.20;;;12.00;99.90;;;;;;5012414;28;20685;-61
2022/04/24 03:29:03;;;;;;;6.90;5.90;;;12.10;99.90;;;;;;5012360;28;20204;-60
2022/04/24 03:31:28;;;;;;;6.67;5.97;;;12.10;99.90;;;;;;5012287;28;20267;-59
2022/04/24 03:33:54;;;;;;;6.50;5.73;;;13.50;99.90;;;;;;5011857;28;20198;-59
2022/04/24 03:36:20;;;;;;;6.83;6.13;;;12.00;99.90;;;;;;5012436;28;20183;-59
2022/04/24 03:38:45;;;;;;;6.47;5.67;;;12.00;99.90;;;;;;5012524;28;20176;-61
2022/04/24 03:41:11;;;;;;;6.37;5.77;;;12.10;99.90;;;;;;5012433;28;20189;-55
2022/04/24 03:43:37;;;;;;;6.73;6.03;;;12.10;99.90;;;;;;5011850;28;20550;-56
2022/04/24 03:46:05;;;;;;;6.33;5.73;;;12.20;99.90;;;;;;5012190;28;20705;-59
2022/04/24 03:48:31;;;;;;;6.03;5.43;;;12.20;99.90;;;;;;5011994;28;20200;-59
2022/04/24 03:50:56;;;;;;;6.10;5.50;;;12.10;99.90;;;;;;5012173;28;20223;-58
2022/04/24 03:53:22;;;;;;;7.03;5.50;;;12.10;99.90;;;;;;5011556;28;20228;-57
2022/04/24 03:55:47;;;;;;;5.83;5.23;;;12.20;99.90;;;;;;5012093;28;20176;-58
2022/04/24 03:58:13;;;;;;;5.60;5.10;;;12.20;99.90;;;;;;5012083;28;20238;-58
2022/04/24 04:00:38;;;;;;;11.50;5.20;;;14.10;99.90;;;;;;5012255;28;20172;-61
2022/04/24 04:03:04;;;;;;;5.63;5.13;;;10.20;99.90;;;;;;5011585;28;20212;-59
2022/04/24 04:05:29;;;;;;;5.70;5.10;;;13.00;99.90;;;;;;5011986;28;20227;-59
2022/04/24 04:07:55;;;;;;;5.70;5.07;;;12.00;99.90;;;;;;5011896;28;20179;-55
2022/04/24 04:10:22;;;;;;;5.70;5.20;;;12.10;99.90;;;;;;5011987;28;20541;-54
2022/04/24 04:12:51;;;;;;;5.70;4.83;;;12.10;99.90;;;;;;5011765;28;20674;-55
2022/04/24 04:15:17;;;;;;;5.33;4.83;;;12.20;99.90;;;;;;5011925;28;20177;-55
2022/04/24 04:17:42;;;;;;;6.13;5.20;;;12.30;99.90;;;;;;5011949;28;20183;-55
2022/04/24 04:20:11;;;;;;;4.67;4.27;;;12.40;99.90;;;;;;5012643;28;20177;-60
2022/04/24 04:22:51;;;;;;;5.90;5.30;;;12.50;99.90;;;;;;5011387;28;20184;-60
2022/04/24 04:25:21;;;;;;;5.20;4.70;;;12.60;99.90;;;;;;5015157;28;20721;-60
2022/04/24 04:27:47;;;;;;;5.17;4.60;;;12.70;99.90;;;;;;5015608;28;20183;-59
2022/04/24 04:30:12;;;;;;;5.10;4.60;;;12.70;99.90;;;;;;5015496;28;20199;-60
2022/04/24 04:32:38;;;;;;;5.10;4.60;;;12.70;99.90;;;;;;5015166;28;20231;-58
2022/04/24 04:35:05;;;;;;;5.43;4.93;;;12.80;99.90;;;;;;5015334;28;20198;-59
2022/04/24 04:37:32;;;;;;;6.00;5.40;;;12.80;99.90;;;;;;5015470;28;20177;-58
2022/04/24 04:39:58;;;;;;;6.40;5.60;;;12.80;99.90;;;;;;5015444;28;20172;-59
2022/04/24 04:42:23;;;;;;;6.70;6.10;;;12.80;99.90;;;;;;5015100;28;20259;-59
2022/04/24 04:44:49;;;;;;;6.47;5.87;;;12.80;99.90;;;;;;5015223;28;20188;-59
2022/04/24 04:47:14;;;;;;;6.27;5.67;;;12.60;99.90;;;;;;5015244;28;20646;-61
2022/04/24 04:49:40;;;;;;;5.90;5.30;;;12.60;99.90;;;;;;5015144;28;20204;-59
2022/04/24 04:52:05;;;;;;;6.57;5.80;;;12.60;99.90;;;;;;5015020;28;20187;-62
2022/04/24 04:54:31;;;;;;;6.10;5.50;;;12.60;99.90;;;;;;5014981;28;20200;-60
2022/04/24 04:56:57;;;;;;;6.47;5.87;;;12.60;99.90;;;;;;5015128;28;20173;-59
2022/04/24 04:59:22;;;;;;;6.77;6.07;;;12.50;99.90;;;;;;5015053;28;20183;-59
2022/04/24 05:01:48;;;;;;;5.90;5.30;;;12.50;99.90;;;;;;5014975;28;20180;-60
2022/04/24 05:04:13;;;;;;;5.93;5.30;;;12.50;99.90;;;;;;5014624;28;20741;-64
2022/04/24 05:06:39;;;;;;;6.13;5.53;;;12.50;99.90;;;;;;5014930;28;20208;-64
2022/04/24 05:09:05;;;;;;;5.47;4.97;;;14.50;99.90;;;;;;5014879;28;20612;-64
2022/04/24 05:11:31;;;;;;;8.23;5.20;;;12.60;99.90;;;;;;5014783;28;20654;-64
2022/04/24 05:13:56;;;;;;;5.47;4.97;;;12.60;99.90;;;;;;5014720;28;20739;-63
2022/04/24 05:16:22;;;;;;;5.67;5.07;;;13.40;99.90;;;;;;5014963;28;20204;-63
2022/04/24 05:18:47;;;;;;;6.20;5.07;;;12.50;99.90;;;;;;5014885;28;20181;-62
2022/04/24 05:21:13;;;;;;;5.30;4.80;;;12.50;99.90;;;;;;5014836;28;20187;-63
2022/04/24 05:23:42;;;;;;;5.27;4.77;;;12.50;99.90;;;;;;4996751;28;20204;-64
2022/04/24 05:26:07;;;;;;;6.90;4.93;;;12.50;99.90;;;;;;5014899;28;20172;-63
2022/04/24 05:28:33;;;;;;;5.40;4.90;;;12.50;99.90;;;;;;5014684;28;20214;-63
2022/04/24 05:30:58;;;;;;;7.03;5.23;;;12.60;99.90;;;;;;5014521;28;20299;-63
2022/04/24 05:33:24;;;;;;;5.17;4.67;;;12.70;99.90;;;;;;5014288;28;20216;-64
2022/04/24 05:35:50;;;;;;;5.60;4.67;;;12.80;99.90;;;;;;5013672;28;20223;-63
2022/04/24 05:38:15;;;;;;;5.43;4.87;;;14.90;99.90;;;;;;5014526;28;20260;-63
2022/04/24 05:40:41;;;;;;;5.70;5.10;;;13.00;99.90;;;;;;5014404;28;20173;-63
2022/04/24 05:43:06;;;;;;;6.63;5.93;;;14.20;99.90;;;;;;4996513;28;20678;-63
2022/04/24 05:45:32;;;;;;;7.40;6.10;;;13.10;99.90;;;;;;5014388;28;20173;-63
2022/04/24 05:47:58;;;;;;;8.10;6.57;;;13.10;99.90;;;;;;5014218;28;20618;-63
2022/04/24 05:50:25;;;;;;;6.73;6.03;;;13.10;99.90;;;;;;5014284;28;20181;-63
2022/04/24 05:52:55;;;;;;;6.60;6.00;;;13.10;99.90;;;;;;5013744;28;20217;-64
2022/04/24 05:55:21;;;;;;;6.67;6.07;;;13.10;99.90;;;;;;5014256;28;20165;-63
2022/04/24 05:57:49;;;;;;;7.57;6.80;;;13.20;99.90;;;;;;5014137;28;20206;-64
2022/04/24 06:00:16;;;;;;;8.30;7.07;;;13.20;99.90;;;;;;5014165;28;20215;-63
2022/04/24 06:02:42;;;;;;;8.43;6.90;;;12.60;99.90;;;;;;5013505;28;20177;-63
2022/04/24 06:05:10;;;;;;;7.93;7.13;;;12.50;99.90;;;;;;5014156;28;20198;-64
2022/04/24 06:07:36;;;;;;;7.87;7.07;;;12.50;99.90;;;;;;5013940;28;20181;-63
2022/04/24 06:10:03;;;;;;;8.10;7.30;;;12.50;99.90;;;;;;5014385;28;20231;-63
2022/04/24 06:12:28;;;;;;;10.83;7.90;;;12.20;99.90;;;;;;5013614;28;20174;-63
2022/04/24 06:14:54;;;;;;;9.60;8.60;;;12.30;99.90;;;;;;5013713;28;20714;-64
2022/04/24 06:17:19;;;;;;;9.10;7.50;;;12.20;99.90;;;;;;5013959;28;20180;-63
2022/04/24 06:19:45;;;;;;;9.23;8.33;;;12.20;99.90;;;;;;5013885;28;20216;-63
2022/04/24 06:22:10;;;;;;;9.63;8.43;;;12.40;99.90;;;;;;5013602;28;20180;-62
2022/04/24 06:24:36;;;;;;;9.90;8.57;;;12.30;99.90;;;;;;5013326;28;20670;-61
2022/04/24 06:27:01;;;;;;;9.87;8.90;;;12.10;99.90;;;;;;5013841;28;20169;-63
2022/04/24 06:29:27;;;;;;;10.20;8.60;;;11.90;99.90;;;;;;5013544;28;20192;-64
2022/04/24 06:31:53;;;;;;;10.70;9.70;;;11.90;99.90;;;;;;5013569;28;20263;-63
2022/04/24 06:34:19;;;;;;;10.77;9.03;;;11.90;99.90;;;;;;5013339;28;20319;-62
2022/04/24 06:36:44;;;;;;;10.47;9.37;;;12.00;99.90;;;;;;5013389;28;20581;-63
2022/04/24 06:39:10;;;;;;;10.53;9.30;;;12.10;99.90;;;;;;5013336;28;20589;-63
2022/04/24 06:41:35;;;;;;;11.43;9.87;;;12.30;99.90;;;;;;5013396;28;20650;-62
2022/04/24 06:44:01;;;;;;;10.27;9.27;;;14.60;99.90;;;;;;5012878;28;20195;-63
2022/04/24 06:46:26;;;;;;;10.90;9.80;;;12.50;99.90;;;;;;5013095;28;20192;-62
2022/04/24 06:48:52;;;;;;;10.23;8.73;;;12.60;99.90;;;;;;5013077;28;20219;-63
2022/04/24 06:51:18;;;;;;;9.97;8.97;;;12.80;99.90;;;;;;5013045;28;20280;-61
2022/04/24 06:53:43;;;;;;;9.07;8.17;;;12.80;99.90;;;;;;5012568;28;20200;-62
2022/04/24 06:56:09;;;;;;;10.60;9.43;;;12.80;99.90;;;;;;5012833;28;20258;-61
2022/04/24 06:58:35;;;;;;;10.33;9.33;;;12.90;99.90;;;;;;5012925;28;20181;-63
2022/04/24 07:01:00;;;;;;;9.83;8.83;;;12.80;99.90;;;;;;5012755;28;20184;-62
2022/04/24 07:03:28;;;;;;;9.50;8.50;;;12.80;99.90;;;;;;5012559;28;20197;-62
2022/04/24 07:05:56;;;;;;;8.80;7.90;;;12.90;99.90;;;;;;5013067;28;20534;-63
2022/04/24 07:08:24;;;;;;;9.63;8.47;;;13.00;99.90;;;;;;5012833;28;20224;-63
2022/04/24 07:10:50;;;;;;;9.23;8.30;;;13.00;99.90;;;;;;5012789;28;20173;-62
2022/04/24 07:13:15;;;;;;;9.77;8.57;;;13.10;99.90;;;;;;5012524;28;20567;-63
2022/04/24 07:15:41;;;;;;;10.07;9.07;;;13.20;99.90;;;;;;5012690;28;20176;-63
2022/04/24 07:18:07;;;;;;;10.50;9.40;;;13.20;99.90;;;;;;5012816;28;20173;-60
2022/04/24 07:20:33;;;;;;;11.13;9.67;;;12.90;99.90;;;;;;5013698;28;20176;-59
2022/04/24 07:23:01;;;;;;;11.00;9.90;;;12.70;99.90;;;;;;5012092;28;20268;-59
2022/04/24 07:25:32;;;;;;;10.40;9.40;;;14.90;99.90;;;;;;5012491;28;20226;-58
2022/04/24 07:27:57;;;;;;;9.87;8.77;;;13.60;99.90;;;;;;5012127;28;20178;-60
2022/04/24 07:30:24;;;;;;;10.50;9.37;;;12.70;99.90;;;;;;5012531;28;20205;-58
2022/04/24 07:32:54;;;;;;;9.47;8.33;;;12.60;99.90;;;;;;5012040;28;20221;-60
2022/04/24 07:35:25;;;;;;;9.90;8.87;;;12.50;99.90;;;;;;5012284;28;20208;-61
2022/04/24 07:37:51;;;;;;;10.23;9.13;;;12.50;99.90;;;;;;5012129;28;20175;-56
2022/04/24 07:40:19;;;;;;;10.43;9.27;;;12.50;99.90;;;;;;5012116;28;20184;-58
2022/04/24 07:42:52;;;;;;;11.87;9.57;;;12.60;99.90;;;;;;5011520;28;20203;-60
2022/04/24 07:45:21;;;;;;;10.07;9.07;;;12.80;99.90;;;;;;5011994;28;20189;-62
2022/04/24 07:47:51;;;;;;;11.07;9.33;;;15.40;99.90;;;;;;5012128;28;20516;-58
2022/04/24 07:50:19;;;;;;;9.63;8.63;;;13.10;99.90;;;;;;5012032;28;20196;-59
2022/04/24 07:52:46;;;;;;;9.77;8.77;;;13.40;99.90;;;;;;5011701;28;20576;-60
2022/04/24 07:55:13;;;;;;;9.40;8.50;;;;;;;;;;5012002;28;20646;-60
2022/04/24 07:57:39;;;;;;;10.20;9.20;;;13.40;99.90;;;;;;5012109;28;20176;-60
2022/04/24 08:00:09;;;;;;;9.50;8.60;;;13.40;99.90;;;;;;5015510;28;20574;-59
2022/04/24 08:02:54;;;;;;;10.00;9.00;;;13.40;99.90;;;;;;5015667;28;20260;-59
2022/04/24 08:05:32;;;;;;;9.43;8.53;;;13.50;99.90;;;;;;5015910;28;20650;-59
2022/04/24 08:08:00;;;;;;;9.17;8.27;;;13.70;99.90;;;;;;5015853;28;20174;-60
2022/04/24 08:10:28;;;;;;;9.17;8.27;;;13.90;99.90;;;;;;5015728;28;20296;-59
2022/04/24 08:12:53;;;;;;;9.60;8.70;;;13.90;99.90;;;;;;5015264;28;20195;-59
2022/04/24 08:15:19;;;;;;;9.83;8.83;;;13.60;99.90;;;;;;5015701;28;20170;-59
2022/04/24 08:17:45;;;;;;;10.03;9.03;;;13.80;99.90;;;;;;5015783;28;20165;-58
2022/04/24 08:20:12;;;;;;;9.50;8.57;;;13.50;99.90;;;;;;5015675;28;20203;-59
2022/04/24 08:22:39;;;;;;;10.13;9.20;;;13.70;99.90;;;;;;5015338;28;20172;-59
2022/04/24 08:25:06;;;;;;;10.50;9.50;;;15.60;99.90;;;;;;5015456;28;20170;-61
2022/04/24 08:27:32;;;;;;;9.17;8.27;;;13.80;99.90;;;;;;5015630;28;20203;-60
2022/04/24 08:29:57;;;;;;;10.00;9.00;;;13.90;99.90;;;;;;5015496;28;20204;-59
2022/04/24 08:32:24;;;;;;;10.40;9.30;;;14.20;99.90;;;;;;5015239;28;20172;-59
2022/04/24 08:34:50;;;;;;;11.80;9.97;;;14.40;99.90;;;;;;5015331;28;20256;-59
2022/04/24 08:37:16;;;;;;;10.60;9.60;;;14.70;99.90;;;;;;5015495;28;20173;-59
2022/04/24 08:39:41;;;;;;;10.73;9.63;;;14.70;99.90;;;;;;5015362;28;20243;-62
2022/04/24 08:42:09;;;;;;;10.37;9.20;;;14.50;99.90;;;;;;5015020;28;20171;-59
2022/04/24 08:44:36;;;;;;;11.20;10.10;;;14.30;99.90;;;;;;5014850;28;20188;-59
2022/04/24 08:47:02;;;;;;;10.23;9.23;;;14.20;99.90;;;;;;5015130;28;20173;-61
2022/04/24 08:49:31;;;;;;;9.80;8.80;;;14.30;99.90;;;;;;5014956;28;20205;-59
2022/04/24 08:51:58;;;;;;;9.27;8.37;;;14.50;99.90;;;;;;5014876;28;20173;-60
2022/04/24 08:54:27;;;;;;;9.73;8.83;;;14.60;99.90;;;;;;5014605;28;20220;-60
2022/04/24 08:56:52;;;;;;;10.07;9.07;;;14.70;99.90;;;;;;5015031;28;20255;-59
2022/04/24 08:59:18;;;;;;;9.67;8.77;;;15.00;99.90;;;;;;5014986;28;20623;-60
2022/04/24 09:01:45;;;;;;;9.93;8.90;;;15.10;99.90;;;;;;5014823;28;20181;-59
2022/04/24 09:04:10;;;;;;;10.33;9.33;;;14.90;99.90;;;;;;5014414;28;20708;-60
2022/04/24 09:06:36;;;;;;;9.27;8.37;;;14.70;99.90;;;;;;5015006;28;20176;-57
2022/04/24 09:09:06;;;;;;;9.63;8.73;;;14.60;99.90;;;;;;5014635;28;20223;-59
2022/04/24 09:11:32;;;;;;;10.00;9.00;;;14.50;99.90;;;;;;5013329;28;20253;-61
2022/04/24 09:14:17;;;;;;;9.70;8.80;;;14.60;99.90;;;;;;5014232;28;20267;-59
2022/04/24 09:16:47;;;;;;;9.70;8.70;;;14.90;99.90;;;;;;5015000;28;20256;-61
2022/04/24 09:19:25;;;;;;;9.47;8.47;;;15.30;99.90;;;;;;5014730;28;20177;-61
2022/04/24 09:22:05;;;;;;;9.17;8.27;;;15.70;99.90;;;;;;5014689;28;20691;-60
2022/04/24 09:24:42;;;;;;;9.50;8.60;;;16.10;99.90;;;;;;5014230;28;20195;-60
2022/04/24 09:27:10;;;;;;;9.20;8.30;;;16.40;99.90;;;;;;5014423;28;20173;-61
2022/04/24 09:29:37;;;;;;;9.10;8.30;;;16.70;99.90;;;;;;5014297;28;20200;-58
2022/04/24 09:32:12;;;;;;;9.37;8.47;;;16.70;99.90;;;;;;5014285;28;20165;-57
2022/04/24 09:34:38;;;;;;;9.20;8.23;;;16.70;99.90;;;;;;5014012;28;20193;-58
2022/04/24 09:37:06;;;;;;;9.07;8.27;;;16.50;99.90;;;;;;5014292;28;20180;-60
2022/04/24 09:39:35;;;;;;;10.13;8.80;;;16.40;99.90;;;;;;5014184;28;20173;-60
2022/04/24 09:42:20;;;;;;;9.53;8.50;;;16.40;99.90;;;;;;5014181;28;20165;-59
2022/04/24 09:44:48;;;;;;;9.17;8.30;;;16.10;99.90;;;;;;5013805;28;20627;-58
2022/04/24 09:47:16;;;;;;;10.57;8.30;;;15.80;99.90;;;;;;5014098;28;20184;-58
2022/04/24 09:49:46;;;;;;;9.23;8.30;;;15.50;99.90;;;;;;5013887;28;20199;-59
2022/04/24 09:52:23;;;;;;;9.77;8.77;;;15.30;99.90;;;;;;5013603;28;20165;-57
2022/04/24 09:54:50;;;;;;;8.37;7.47;;;15.50;99.90;;;;;;5013769;28;20200;-59
2022/04/24 09:57:17;;;;;;;7.73;7.00;;;15.90;99.90;;;;;;5013951;28;20195;-60
2022/04/24 09:59:44;;;;;;;7.77;6.97;;;15.90;99.90;;;;;;5013948;28;20192;-58
2022/04/24 10:02:12;;;;;;;7.57;6.87;;;16.00;99.90;;;;;;5013622;28;20232;-60
2022/04/24 10:04:39;;;;;;;6.97;6.37;;;16.60;99.90;;;;;;5013804;28;20204;-59
2022/04/24 10:07:09;;;;;;;6.37;5.63;;;17.10;99.90;;;;;;5013743;28;20653;-59
2022/04/24 10:09:37;;;;;;;6.47;5.77;;;17.50;99.90;;;;;;5013661;28;20196;-57
2022/04/24 10:12:05;;;;;;;6.53;5.93;;;17.60;99.90;;;;;;5013704;28;20650;-61
2022/04/24 10:14:32;;;;;;;6.90;6.30;;;17.70;99.90;;;;;;5013195;28;20193;-59
2022/04/24 10:17:15;;;;;;;6.33;5.73;;;18.00;99.90;;;;;;4996033;28;20184;-58
2022/04/24 10:19:53;;;;;;;6.43;5.83;;;18.00;99.90;;;;;;5013495;28;20183;-60
2022/04/24 10:22:27;;;;;;;6.00;5.23;;;17.90;99.90;;;;;;5012887;28;20183;-57
2022/04/24 10:25:00;;;;;;;7.17;5.80;;;17.90;99.90;;;;;;5013373;28;20203;-60
2022/04/24 10:27:45;;;;;;;6.70;5.67;;;18.00;99.90;;;;;;5013311;28;20662;-60
2022/04/24 10:30:19;;;;;;;6.00;5.43;;;18.00;99.90;;;;;;5013294;28;20674;-59
2022/04/24 10:32:48;;;;;;;6.80;5.87;;;17.80;99.90;;;;;;5012759;28;20199;-59
2022/04/24 10:35:20;;;;;;;6.07;5.57;;;17.80;99.90;;;;;;5012952;28;20173;-59
2022/04/24 10:37:50;;;;;;;6.60;5.93;;;17.90;99.90;;;;;;5013068;28;20176;-57
2022/04/24 10:40:18;;;;;;;6.27;5.60;;;17.70;99.90;;;;;;5012886;28;20173;-58
2022/04/24 10:42:43;;;;;;;5.87;5.27;;;17.70;99.90;;;;;;5012675;28;20252;-57
2022/04/24 10:45:14;;;;;;;5.47;4.97;;;18.20;99.90;;;;;;5013099;28;20732;-59
2022/04/24 10:47:52;;;;;;;4.87;4.47;;;18.30;99.90;;;;;;5013078;28;20256;-58
2022/04/24 10:50:19;;;;;;;5.47;4.97;;;18.40;99.90;;;;;;5012974;28;20402;-59
2022/04/24 10:52:47;;;;;;;5.30;4.80;;;18.30;99.90;;;;;;5012475;28;20197;-59
2022/04/24 10:55:16;;;;;;;5.97;5.20;;;17.90;99.90;;;;;;5012852;28;20172;-57
2022/04/24 10:57:43;;;;;;;6.10;5.27;;;17.20;99.90;;;;;;5012784;28;20661;-57
2022/04/24 11:00:22;;;;;;;6.57;5.40;;;17.00;99.90;;;;;;4995071;28;20266;-59
2022/04/24 11:02:49;;;;;;;5.83;5.33;;;17.20;99.90;;;;;;5012218;28;20216;-58
2022/04/24 11:05:20;;;;;;;5.80;5.30;;;17.60;99.90;;;;;;5012458;28;20173;-60
2022/04/24 11:07:45;;;;;;;5.10;4.60;;;18.20;99.90;;;;;;5012582;28;20173;-57
2022/04/24 11:10:13;;;;;;;6.07;4.87;;;18.50;99.90;;;;;;5012529;28;20723;-59
2022/04/24 11:12:40;;;;;;;5.70;5.20;;;18.80;99.90;;;;;;5012078;28;20175;-61
2022/04/24 11:15:11;;;;;;;5.07;4.57;;;18.90;99.90;;;;;;5012377;28;20255;-58
2022/04/24 11:17:37;;;;;;;4.87;4.47;;;19.10;99.90;;;;;;5012507;28;20542;-58
2022/04/24 11:20:09;;;;;;;4.90;4.50;;;19.30;99.90;;;;;;5012380;28;20714;-61
2022/04/24 11:22:52;;;;;;;4.87;4.47;;;19.60;99.90;;;;;;5012067;28;20183;-59
2022/04/24 11:25:20;;;;;;;4.57;4.17;;;19.70;99.90;;;;;;5012424;28;20172;-59
2022/04/24 11:27:53;;;;;;;4.80;4.40;;;19.70;99.70;;;;;;5012175;28;20191;-60
2022/04/24 11:30:33;;;;;;;4.07;3.77;;;19.70;99.90;;;;;;5012478;28;20215;-59
2022/04/24 11:33:07;;;;;;;4.30;3.90;;;19.60;99.90;;;;;;5011354;28;20189;-60
2022/04/24 11:35:38;;;;;;;4.40;4.00;;;19.60;99.80;;;;;;5012126;28;20264;-59
2022/04/24 11:38:08;;;;;;;5.20;4.17;;;19.40;99.90;;;;;;5011974;28;20164;-60
2022/04/24 11:40:43;;;;;;;4.63;4.10;;;19.30;99.30;;;;;;5012167;28;20296;-61
2022/04/24 11:43:09;;;;;;;3.97;3.67;;;19.10;99.30;;;;;;5011827;28;20253;-58
2022/04/24 11:51:15;;;;;;;4.50;4.10;;;18.90;99.00;;;;;;5012227;28;20188;-58
2022/04/24 11:53:41;;;;;;;4.73;4.20;;;18.30;99.70;;;;;;5011382;28;20304;-58
2022/04/24 11:56:07;;;;;;;4.17;3.80;;;17.90;99.90;;;;;;5011933;28;20200;-60
2022/04/24 11:58:38;;;;;;;4.60;4.20;;;17.70;99.90;;;;;;5011878;28;20707;-59
2022/04/24 12:01:07;;;;;;;4.60;4.20;;;17.80;99.90;;;;;;4994216;28;20255;-60
2022/04/24 12:03:34;;;;;;;4.73;4.33;;;17.80;99.90;;;;;;5011539;28;20196;-59
2022/04/24 12:06:02;;;;;;;4.10;3.80;;;17.60;99.90;;;;;;5011837;28;20657;-59
2022/04/24 12:08:42;;;;;;;3.90;3.60;;;17.30;99.90;;;;;;5011744;28;20168;-60
2022/04/24 12:11:08;;;;;;;3.70;3.40;;;17.20;99.90;;;;;;5011923;28;20171;-61
2022/04/24 12:13:34;;;;;;;3.33;3.10;;;17.00;99.90;;;;;;5011396;28;20315;-61
2022/04/24 12:16:00;;;;;;;2.90;2.70;;;16.70;99.90;;;;;;5012059;28;20181;-61
2022/04/24 12:18:28;;;;;;;2.87;2.60;;;16.70;99.90;;;;;;5011904;28;20179;-60
2022/04/24 12:20:54;;;;;;;3.47;3.17;;;16.70;99.90;;;;;;5011776;28;20518;-60
2022/04/24 12:23:20;;;;;;;2.90;2.70;;;16.50;99.90;;;;;;5011234;28;20199;-58
2022/04/24 12:25:53;;;;;;;3.30;3.00;;;16.30;99.90;;;;;;5011629;28;20180;-60
2022/04/24 12:28:41;;;;;;;3.70;3.10;;;16.40;99.90;;;;;;5011518;28;20239;-60
2022/04/24 12:31:19;;;;;;;2.77;2.57;;;16.60;99.90;;;;;;5011619;28;20172;-59
2022/04/24 12:33:46;;;;;;;2.80;2.60;;;17.20;99.90;;;;;;5011231;28;20554;-59
2022/04/24 12:36:13;;;;;;;2.43;2.23;;;18.30;99.90;;;;;;5011570;28;20183;-61
2022/04/24 12:38:40;;;;;;;2.57;2.30;;;18.80;99.60;;;;;;5011538;28;20259;-59
2022/04/24 12:41:12;;;;;;;3.03;2.30;;;18.60;98.30;;;;;;5011597;28;20580;-57
2022/04/24 12:43:38;;;;;;;2.70;2.50;;;17.80;98.60;;;;;;5011245;28;20841;-57
2022/04/24 12:46:05;;;;;;;2.30;2.20;;;17.20;99.70;;;;;;5014482;28;20187;-56
2022/04/24 12:48:30;;;;;;;2.37;2.27;;;17.20;99.90;;;;;;5015123;28;20708;-60
2022/04/24 12:50:56;;;;;;;2.60;2.10;;;17.40;99.90;;;;;;5015049;28;20172;-59